createdAt,value
2018-06-14T00:00:54.537Z,7.93
2018-06-14T00:03:23.099Z,8.83
2018-06-14T00:05:58.207Z,10.63
2018-06-14T00:08:26.666Z,10.93
2018-06-14T00:10:55.275Z,9.97
2018-06-14T00:13:23.957Z,6.07
2018-06-14T00:15:53.617Z,8.90
2018-06-14T00:18:22.451Z,7.23
2018-06-14T00:20:51.250Z,7.37
2018-06-14T00:23:19.796Z,7.30
2018-06-14T00:25:48.515Z,9.23
2018-06-14T00:28:17.093Z,7.57
2018-06-14T00:30:45.597Z,5.80
2018-06-14T00:33:14.360Z,10.07
2018-06-14T00:35:42.940Z,7.90
2018-06-14T00:38:11.469Z,12.07
2018-06-14T00:41:11.717Z,10.73
2018-06-14T00:44:11.368Z,7.17
2018-06-14T00:46:40.154Z,10.57
2018-06-14T00:49:08.863Z,6.40
2018-06-14T00:51:37.632Z,7.43
2018-06-14T00:54:06.125Z,12.43
2018-06-14T00:56:39.966Z,11.00
2018-06-14T00:59:08.655Z,7.83
2018-06-14T01:01:37.286Z,10.40
2018-06-14T01:04:06.067Z,9.83
2018-06-14T01:06:34.505Z,10.90
2018-06-14T01:09:03.438Z,9.07
2018-06-14T01:11:32.080Z,9.13
2018-06-14T01:14:00.704Z,7.63
2018-06-14T01:16:29.508Z,11.20
2018-06-14T01:18:57.974Z,11.10
2018-06-14T01:21:26.575Z,8.77
2018-06-14T01:23:55.037Z,9.43
2018-06-14T01:26:23.656Z,10.13
2018-06-14T01:28:52.356Z,9.47
2018-06-14T01:31:21.017Z,10.30
2018-06-14T01:33:49.555Z,10.77
2018-06-14T01:36:18.161Z,9.53
2018-06-14T01:38:46.740Z,7.07
2018-06-14T01:41:15.248Z,9.17
2018-06-14T01:43:43.944Z,7.50
2018-06-14T01:46:12.810Z,7.60
2018-06-14T01:48:41.309Z,10.07
2018-06-14T01:51:10.040Z,9.53
2018-06-14T01:53:38.750Z,9.17
2018-06-14T01:56:07.226Z,8.40
2018-06-14T01:58:35.860Z,8.33
2018-06-14T02:01:04.479Z,8.63
2018-06-14T02:03:33.112Z,12.03
2018-06-14T02:06:01.823Z,9.30
2018-06-14T02:08:30.477Z,11.17
2018-06-14T02:10:59.058Z,11.67
2018-06-14T02:13:27.541Z,9.63
2018-06-14T02:15:56.232Z,9.07
2018-06-14T02:18:25.018Z,8.43
2018-06-14T02:20:53.898Z,12.17
2018-06-14T02:23:22.566Z,8.80
2018-06-14T02:25:51.342Z,10.60
2018-06-14T02:28:20.091Z,10.70
2018-06-14T02:30:48.662Z,5.33
2018-06-14T02:33:17.454Z,9.13
2018-06-14T02:35:46.008Z,9.93
2018-06-14T02:38:14.597Z,13.20
2018-06-14T02:40:43.360Z,8.87
2018-06-14T02:43:11.915Z,8.50
2018-06-14T02:45:40.549Z,8.07
2018-06-14T02:48:09.220Z,10.73
2018-06-14T02:50:38.185Z,7.67
2018-06-14T02:53:06.732Z,11.43
2018-06-14T02:55:35.146Z,11.43
2018-06-14T02:58:03.799Z,9.40
2018-06-14T03:00:32.333Z,10.20
2018-06-14T03:03:01.319Z,10.63
2018-06-14T03:05:30.020Z,12.50
2018-06-14T03:07:58.798Z,9.57
2018-06-14T03:10:27.423Z,9.50
2018-06-14T03:12:55.962Z,8.57
2018-06-14T03:15:26.239Z,10.83
2018-06-14T03:17:54.842Z,9.47
2018-06-14T03:20:26.635Z,10.73
2018-06-14T03:22:56.111Z,8.67
2018-06-14T03:25:24.924Z,7.93
2018-06-14T03:27:53.714Z,7.90
2018-06-14T03:30:22.700Z,7.53
2018-06-14T03:32:51.804Z,8.73
2018-06-14T03:35:21.001Z,10.97
2018-06-14T03:37:49.692Z,11.50
2018-06-14T03:40:18.162Z,11.83
2018-06-14T03:42:47.263Z,12.33
2018-06-14T03:45:17.913Z,6.83
2018-06-14T03:47:48.786Z,6.97
2018-06-14T03:50:17.461Z,8.43
2018-06-14T03:52:45.986Z,8.77
2018-06-14T03:55:14.676Z,6.27
2018-06-14T03:57:43.261Z,8.60
2018-06-14T04:00:11.839Z,11.93
2018-06-14T04:02:40.334Z,10.60
2018-06-14T04:05:09.229Z,9.33
2018-06-14T04:07:37.804Z,10.60
2018-06-14T04:10:06.733Z,13.23
2018-06-14T04:12:35.480Z,12.17
2018-06-14T04:15:03.972Z,9.20
2018-06-14T04:17:32.672Z,8.33
2018-06-14T04:20:01.431Z,9.87
2018-06-14T04:22:30.223Z,12.80
2018-06-14T04:24:58.642Z,7.60
2018-06-14T04:27:27.539Z,8.17
2018-06-14T04:29:56.065Z,15.90
2018-06-14T04:32:24.740Z,10.90
2018-06-14T04:34:54.375Z,11.45
2018-06-14T04:37:23.014Z,10.53
2018-06-14T04:39:51.524Z,12.97
2018-06-14T04:42:20.209Z,10.33
2018-06-14T04:44:48.956Z,12.30
2018-06-14T04:47:17.626Z,8.87
2018-06-14T04:49:46.382Z,10.57
2018-06-14T04:52:14.984Z,9.27
2018-06-14T04:54:47.787Z,12.67
2018-06-14T04:57:16.748Z,13.07
2018-06-14T04:59:45.458Z,11.63
2018-06-14T05:02:14.514Z,13.70
2018-06-14T05:04:43.191Z,13.73
2018-06-14T05:07:11.704Z,9.20
2018-06-14T05:09:40.368Z,9.70
2018-06-14T05:12:09.215Z,12.60
2018-06-14T05:14:39.058Z,11.33
2018-06-14T05:17:07.650Z,13.63
2018-06-14T05:19:36.223Z,15.03
2018-06-14T05:22:04.622Z,11.17
2018-06-14T05:24:33.112Z,9.60
2018-06-14T05:27:01.767Z,10.77
2018-06-14T05:29:30.632Z,11.97
2018-06-14T05:31:59.192Z,12.23
2018-06-14T05:34:27.927Z,11.07
2018-06-14T05:36:56.513Z,9.10
2018-06-14T05:39:25.616Z,13.80
2018-06-14T05:41:55.123Z,11.70
2018-06-14T05:44:23.596Z,12.47
2018-06-14T05:46:52.172Z,17.27
2018-06-14T05:49:20.651Z,11.23
2018-06-14T05:51:49.134Z,20.37
2018-06-14T05:54:17.714Z,14.93
2018-06-14T05:56:46.407Z,15.10
2018-06-14T05:59:15.092Z,14.57
2018-06-14T06:01:43.670Z,16.53
2018-06-14T06:04:12.165Z,14.70
2018-06-14T06:06:40.836Z,19.73
2018-06-14T06:09:10.603Z,18.17
2018-06-14T06:11:39.131Z,25.60
2018-06-14T06:14:07.812Z,27.17
2018-06-14T06:16:36.308Z,18.00
2018-06-14T06:19:04.875Z,19.43
2018-06-14T06:21:33.563Z,21.03
2018-06-14T06:24:02.060Z,20.63
2018-06-14T06:26:30.485Z,20.00
2018-06-14T06:28:59.109Z,18.40
2018-06-14T06:31:27.687Z,20.60
2018-06-14T06:33:56.079Z,16.70
2018-06-14T06:36:24.651Z,15.40
2018-06-14T06:38:53.238Z,20.40
2018-06-14T06:41:21.919Z,21.07
2018-06-14T06:43:50.501Z,20.97
2018-06-14T06:46:19.191Z,15.97
2018-06-14T06:48:47.973Z,16.13
2018-06-14T06:51:16.567Z,18.67
2018-06-14T06:53:45.038Z,12.73
2018-06-14T06:56:13.726Z,15.23
2018-06-14T06:58:42.454Z,12.47
2018-06-14T07:01:11.197Z,14.27
2018-06-14T07:03:39.781Z,13.30
2018-06-14T07:06:08.465Z,14.13
2018-06-14T07:08:36.952Z,8.87
2018-06-14T07:11:05.476Z,11.40
2018-06-14T07:13:33.743Z,10.53
2018-06-14T07:16:02.305Z,10.37
2018-06-14T07:18:30.869Z,8.83
2018-06-14T07:20:59.347Z,13.50
2018-06-14T07:23:27.751Z,13.00
2018-06-14T07:25:56.308Z,10.30
2018-06-14T07:28:24.887Z,12.67
2018-06-14T07:30:53.321Z,10.13
2018-06-14T07:33:21.857Z,14.70
2018-06-14T07:35:50.339Z,10.63
2018-06-14T07:38:19.877Z,10.53
2018-06-14T07:40:48.321Z,10.40
2018-06-14T07:43:16.902Z,10.67
2018-06-14T07:45:45.485Z,13.90
2018-06-14T07:48:14.081Z,9.67
2018-06-14T07:50:42.655Z,17.83
2018-06-14T07:53:11.236Z,12.27
2018-06-14T07:55:39.721Z,16.80
2018-06-14T07:58:08.401Z,14.97
2018-06-14T08:00:36.982Z,9.40
2018-06-14T08:03:05.481Z,8.93
2018-06-14T08:05:33.842Z,12.57
2018-06-14T08:08:02.423Z,10.70
2018-06-14T08:10:30.829Z,9.27
2018-06-14T08:12:59.484Z,12.27
2018-06-14T08:15:27.929Z,7.53
2018-06-14T08:17:56.552Z,10.87
2018-06-14T08:20:25.134Z,8.03
2018-06-14T08:22:53.628Z,11.30
2018-06-14T08:25:22.196Z,15.80
2018-06-14T08:27:50.788Z,13.27
2018-06-14T08:30:19.281Z,13.77
2018-06-14T08:32:47.948Z,14.90
2018-06-14T08:35:16.533Z,10.37
2018-06-14T08:37:45.113Z,13.47
2018-06-14T08:40:13.693Z,10.47
2018-06-14T08:42:42.279Z,8.80
2018-06-14T08:45:10.767Z,10.73
2018-06-14T08:47:39.342Z,6.53
2018-06-14T08:50:07.926Z,12.47
2018-06-14T08:52:36.317Z,6.40
2018-06-14T08:55:04.985Z,8.23
2018-06-14T08:57:33.574Z,8.13
2018-06-14T09:00:01.886Z,11.47
2018-06-14T09:02:30.430Z,10.10
2018-06-14T09:04:59.014Z,7.77
2018-06-14T09:07:27.596Z,6.47
2018-06-14T09:09:56.248Z,10.07
2018-06-14T09:12:24.865Z,8.23
2018-06-14T09:14:53.451Z,10.53
2018-06-14T09:17:22.133Z,7.60
2018-06-14T09:19:51.327Z,9.47
2018-06-14T09:22:19.769Z,8.27
2018-06-14T09:24:48.805Z,8.73
2018-06-14T09:27:17.280Z,7.20
2018-06-14T09:29:45.712Z,4.87
2018-06-14T09:32:14.349Z,10.77
2018-06-14T09:34:42.932Z,5.60
2018-06-14T09:37:12.482Z,11.80
2018-06-14T09:39:41.016Z,11.07
2018-06-14T09:42:09.601Z,8.47
2018-06-14T09:44:38.028Z,8.73
2018-06-14T09:47:06.666Z,10.33
2018-06-14T09:49:35.167Z,9.33
2018-06-14T09:52:03.640Z,8.13
2018-06-14T09:54:32.105Z,12.10
2018-06-14T09:57:00.691Z,9.53
2018-06-14T09:59:29.278Z,7.73
2018-06-14T10:01:57.750Z,12.20
2018-06-14T10:04:26.233Z,8.57
2018-06-14T10:06:54.817Z,13.93
2018-06-14T10:09:23.809Z,10.30
2018-06-14T10:11:52.493Z,9.10
2018-06-14T10:14:20.897Z,10.33
2018-06-14T10:16:49.382Z,8.03
2018-06-14T10:19:17.936Z,12.77
2018-06-14T10:21:46.655Z,8.33
2018-06-14T10:24:15.165Z,9.97
2018-06-14T10:26:43.893Z,8.43
2018-06-14T10:29:12.470Z,6.27
2018-06-14T10:31:40.933Z,5.37
2018-06-14T10:34:09.490Z,8.07
2018-06-14T10:36:38.015Z,8.90
2018-06-14T10:39:06.850Z,7.23
2018-06-14T10:41:35.255Z,10.63
2018-06-14T10:44:03.971Z,5.00
2018-06-14T10:46:32.762Z,11.83
2018-06-14T10:49:01.341Z,9.73
2018-06-14T10:51:30.674Z,8.93
2018-06-14T10:53:59.124Z,6.83
2018-06-14T10:56:27.809Z,6.77
2018-06-14T10:58:56.289Z,9.27
2018-06-14T11:01:24.736Z,11.77
2018-06-14T11:03:53.351Z,7.80
2018-06-14T11:06:21.937Z,8.13
2018-06-14T11:08:51.332Z,6.17
2018-06-14T11:11:19.917Z,7.10
2018-06-14T11:13:48.254Z,8.57
2018-06-14T11:16:16.876Z,7.40
2018-06-14T11:18:45.464Z,5.97
2018-06-14T11:21:13.865Z,8.00
2018-06-14T11:23:42.421Z,7.43
2018-06-14T11:26:11.827Z,7.00
2018-06-14T11:28:40.326Z,5.03
2018-06-14T11:31:09.095Z,8.10
2018-06-14T11:33:37.693Z,8.67
2018-06-14T11:36:06.260Z,5.93
2018-06-14T11:38:34.843Z,8.40
2018-06-14T11:41:03.426Z,9.57
2018-06-14T11:43:32.376Z,9.77
2018-06-14T11:46:00.898Z,22.33
2018-06-14T11:48:29.500Z,10.43
2018-06-14T11:50:57.963Z,8.63
2018-06-14T11:53:26.549Z,15.93
2018-06-14T11:55:55.046Z,17.10
2018-06-14T11:58:23.608Z,14.70
2018-06-14T12:00:52.300Z,9.27
2018-06-14T12:03:20.880Z,12.33
2018-06-14T12:05:49.855Z,11.17
2018-06-14T12:08:18.396Z,7.90
2018-06-14T12:10:47.181Z,4.33
2018-06-14T12:13:15.828Z,4.40
2018-06-14T12:15:44.405Z,3.60
2018-06-14T12:18:12.991Z,3.50
2018-06-14T12:20:41.473Z,4.70
2018-06-14T12:23:09.888Z,9.57
2018-06-14T12:25:38.435Z,6.93
2018-06-14T12:28:07.015Z,5.53
2018-06-14T12:30:35.596Z,7.57
2018-06-14T12:33:04.093Z,4.97
2018-06-14T12:35:32.561Z,4.00
2018-06-14T12:38:00.957Z,4.93
2018-06-14T12:40:29.388Z,3.93
2018-06-14T12:42:57.804Z,7.53
2018-06-14T12:45:26.377Z,8.97
2018-06-14T12:47:54.962Z,7.00
2018-06-14T12:50:24.384Z,8.27
2018-06-14T12:52:53.877Z,9.57
2018-06-14T12:55:22.454Z,7.97
2018-06-14T12:57:50.929Z,9.63
2018-06-14T13:00:19.515Z,5.40
2018-06-14T13:02:48.098Z,6.10
2018-06-14T13:05:16.683Z,6.13
2018-06-14T13:07:45.262Z,4.57
2018-06-14T13:10:14.664Z,7.40
2018-06-14T13:12:43.251Z,7.70
2018-06-14T13:15:11.830Z,9.67
2018-06-14T13:17:40.413Z,10.07
2018-06-14T13:20:09.004Z,6.87
2018-06-14T13:22:37.579Z,6.43
2018-06-14T13:25:06.168Z,7.77
2018-06-14T13:27:34.845Z,11.13
2018-06-14T13:30:04.128Z,12.07
2018-06-14T13:32:32.737Z,11.97
2018-06-14T13:35:01.314Z,9.30
2018-06-14T13:37:29.821Z,9.40
2018-06-14T13:39:58.390Z,10.90
2018-06-14T13:42:27.805Z,7.47
2018-06-14T13:44:56.267Z,10.40
2018-06-14T13:47:24.842Z,11.83
2018-06-14T13:49:53.434Z,11.10
2018-06-14T13:52:21.922Z,9.47
2018-06-14T13:54:50.489Z,12.37
2018-06-14T13:57:19.073Z,11.67
2018-06-14T13:59:47.557Z,11.70
2018-06-14T14:02:16.033Z,10.33
2018-06-14T14:04:44.431Z,13.73
2018-06-14T14:07:13.037Z,7.80
2018-06-14T14:09:41.475Z,14.50
2018-06-14T14:12:10.057Z,13.57
2018-06-14T14:14:38.589Z,9.30
2018-06-14T14:17:07.016Z,10.80
2018-06-14T14:19:35.603Z,11.17
2018-06-14T14:22:04.186Z,7.53
2018-06-14T14:24:32.685Z,7.53
2018-06-14T14:27:01.212Z,9.57
2018-06-14T14:29:29.832Z,9.67
2018-06-14T14:31:58.312Z,15.27
2018-06-14T14:34:26.896Z,15.30
2018-06-14T14:36:56.345Z,12.70
2018-06-14T14:39:24.831Z,9.60
2018-06-14T14:41:54.327Z,10.47
2018-06-14T14:44:22.865Z,8.47
2018-06-14T14:46:51.451Z,5.73
2018-06-14T14:49:19.926Z,7.13
2018-06-14T14:51:48.382Z,8.67
2018-06-14T14:54:16.922Z,7.43
2018-06-14T14:56:45.313Z,7.97
2018-06-14T14:59:14.669Z,6.90
2018-06-14T15:01:43.064Z,5.13
2018-06-14T15:04:11.560Z,7.87
2018-06-14T15:06:40.114Z,4.47
2018-06-14T15:09:09.313Z,3.87
2018-06-14T15:11:37.860Z,7.30
2018-06-14T15:14:06.422Z,8.37
2018-06-14T15:16:35.064Z,5.53
2018-06-14T15:19:03.487Z,7.07
2018-06-14T15:21:32.222Z,10.50
2018-06-14T15:24:00.708Z,6.73
2018-06-14T15:26:29.289Z,8.83
2018-06-14T15:28:57.773Z,5.17
2018-06-14T15:31:26.352Z,6.33
2018-06-14T15:33:54.835Z,6.43
2018-06-14T15:36:23.430Z,10.63
2018-06-14T15:38:51.997Z,5.13
2018-06-14T15:41:20.579Z,4.73
2018-06-14T15:43:49.209Z,5.97
2018-06-14T15:46:17.539Z,12.37
2018-06-14T15:48:46.252Z,12.17
2018-06-14T15:51:14.813Z,5.33
2018-06-14T15:53:43.501Z,7.40
2018-06-14T15:56:23.750Z,5.20
2018-06-14T15:58:52.347Z,5.30
2018-06-14T16:01:21.359Z,16.33
2018-06-14T16:03:49.914Z,7.23
2018-06-14T16:06:18.494Z,10.80
2018-06-14T16:08:46.889Z,7.80
2018-06-14T16:11:15.382Z,6.87
2018-06-14T16:13:43.935Z,8.57
2018-06-14T16:16:12.518Z,6.27
2018-06-14T16:18:41.099Z,6.63
2018-06-14T16:21:09.693Z,2.60
2018-06-14T16:23:38.270Z,4.83
2018-06-14T16:26:06.676Z,7.43
2018-06-14T16:28:35.142Z,4.40
2018-06-14T16:31:03.539Z,12.07
2018-06-14T16:33:32.074Z,6.10
2018-06-14T16:36:00.879Z,6.63
2018-06-14T16:38:29.823Z,5.23
2018-06-14T16:40:58.348Z,7.80
2018-06-14T16:43:26.833Z,7.43
2018-06-14T16:45:55.424Z,7.13
2018-06-14T16:48:23.892Z,4.23
2018-06-14T16:50:52.476Z,7.33
2018-06-14T16:53:21.058Z,6.37
2018-06-14T16:55:49.668Z,8.53
2018-06-14T16:58:18.308Z,8.57
2018-06-14T17:00:46.911Z,6.80
2018-06-14T17:03:15.491Z,5.77
2018-06-14T17:05:43.910Z,14.30
2018-06-14T17:08:12.660Z,6.67
2018-06-14T17:10:41.306Z,6.33
2018-06-14T17:13:10.234Z,7.17
2018-06-14T17:15:38.694Z,9.63
2018-06-14T17:18:08.334Z,4.70
2018-06-14T17:20:36.900Z,5.93
2018-06-14T17:23:05.587Z,8.30
2018-06-14T17:25:34.068Z,6.37
2018-06-14T17:28:02.653Z,7.27
2018-06-14T17:30:31.236Z,6.10
2018-06-14T17:32:59.709Z,7.17
2018-06-14T17:35:28.229Z,6.97
2018-06-14T17:37:56.739Z,8.13
2018-06-14T17:40:25.362Z,5.50
2018-06-14T17:42:53.944Z,4.27
2018-06-14T17:45:22.652Z,7.73
2018-06-14T17:47:51.175Z,5.92
2018-06-14T17:50:19.536Z,5.07
2018-06-14T17:52:48.070Z,5.03
2018-06-14T17:55:16.663Z,8.47
2018-06-14T17:57:45.239Z,7.90
2018-06-14T18:00:13.926Z,5.47
2018-06-14T18:02:42.507Z,5.27
2018-06-14T18:05:11.002Z,5.33
2018-06-14T18:07:40.037Z,6.43
2018-06-14T18:10:08.677Z,9.03
2018-06-14T18:12:37.251Z,4.87
2018-06-14T18:15:05.859Z,5.83
2018-06-14T18:17:34.629Z,6.83
2018-06-14T18:20:03.047Z,9.80
2018-06-14T18:22:31.581Z,10.97
2018-06-14T18:25:00.066Z,6.27
2018-06-14T18:27:28.660Z,12.17
2018-06-14T18:29:57.098Z,7.73
2018-06-14T18:32:25.707Z,6.73
2018-06-14T18:34:54.186Z,7.00
2018-06-14T18:37:22.586Z,5.67
2018-06-14T18:39:51.160Z,9.40
2018-06-14T18:42:19.539Z,7.17
2018-06-14T18:44:48.008Z,5.63
2018-06-14T18:47:16.608Z,4.60
2018-06-14T18:49:45.337Z,5.20
2018-06-14T18:52:13.933Z,6.80
2018-06-14T18:54:42.548Z,6.50
2018-06-14T18:57:11.127Z,8.67
2018-06-14T18:59:39.917Z,7.57
2018-06-14T19:02:08.750Z,10.03
2018-06-14T19:04:37.592Z,7.20
2018-06-14T19:07:07.238Z,7.87
2018-06-14T19:09:37.078Z,5.60
2018-06-14T19:12:06.248Z,9.47
2018-06-14T19:14:35.355Z,7.63
2018-06-14T19:17:04.145Z,11.23
2018-06-14T19:19:33.101Z,7.63
2018-06-14T19:22:02.125Z,7.10
2018-06-14T19:24:30.571Z,5.23
2018-06-14T19:26:59.323Z,4.97
2018-06-14T19:29:28.349Z,6.10
2018-06-14T19:31:57.193Z,5.83
2018-06-14T19:34:26.249Z,5.87
2018-06-14T19:36:55.448Z,6.90
2018-06-14T19:39:24.517Z,5.97
2018-06-14T19:41:53.099Z,9.33
2018-06-14T19:44:21.990Z,13.00
2018-06-14T19:46:50.917Z,12.90
2018-06-14T19:49:24.892Z,10.27
2018-06-14T19:51:55.290Z,13.63
2018-06-14T19:54:25.150Z,8.83
2018-06-14T19:56:53.895Z,6.60
2018-06-14T19:59:23.353Z,6.80
2018-06-14T20:01:52.748Z,5.63
2018-06-14T20:04:21.299Z,6.37
2018-06-14T20:06:49.905Z,8.53
2018-06-14T20:09:18.502Z,5.40
2018-06-14T20:11:47.056Z,6.03
2018-06-14T20:14:15.457Z,5.80
2018-06-14T20:16:44.110Z,7.20
2018-06-14T20:19:12.796Z,6.27
2018-06-14T20:21:41.433Z,10.80
2018-06-14T20:24:09.961Z,9.60
2018-06-14T20:26:38.630Z,9.40
2018-06-14T20:29:07.354Z,11.30
2018-06-14T20:31:35.830Z,7.30
2018-06-14T20:34:04.395Z,6.10
2018-06-14T20:36:32.877Z,5.90
2018-06-14T20:39:01.362Z,6.50
2018-06-14T20:41:30.054Z,7.60
2018-06-14T20:43:58.626Z,11.47
2018-06-14T20:46:27.172Z,8.83
2018-06-14T20:48:56.112Z,8.77
2018-06-14T20:51:24.686Z,5.53
2018-06-14T20:53:53.371Z,5.60
2018-06-14T20:56:21.848Z,4.03
2018-06-14T20:58:51.194Z,7.57
2018-06-14T21:01:19.733Z,3.67
2018-06-14T21:03:48.231Z,4.50
2018-06-14T21:06:16.797Z,4.77
2018-06-14T21:08:45.380Z,5.67
2018-06-14T21:11:13.959Z,82.73
2018-06-14T21:13:42.557Z,113.40
2018-06-14T21:16:11.128Z,74.10
2018-06-14T21:18:39.617Z,22.17
2018-06-14T21:21:08.190Z,6.33
2018-06-14T21:23:36.674Z,7.20
2018-06-14T21:26:05.307Z,5.00
2018-06-14T21:28:33.836Z,5.03
2018-06-14T21:31:03.618Z,4.87
2018-06-14T21:33:32.331Z,5.03
2018-06-14T21:36:01.023Z,7.97
2018-06-14T21:38:29.485Z,6.00
2018-06-14T21:40:57.979Z,4.47
2018-06-14T21:43:26.466Z,7.33
2018-06-14T21:45:55.013Z,5.33
2018-06-14T21:48:23.628Z,7.83
2018-06-14T21:50:52.210Z,4.57
2018-06-14T21:53:20.794Z,4.80
2018-06-14T21:55:49.480Z,4.27
2018-06-14T21:58:18.103Z,4.23
2018-06-14T22:00:46.545Z,6.20
2018-06-14T22:03:20.245Z,4.27
2018-06-14T22:05:48.931Z,6.60
2018-06-14T22:08:17.738Z,5.90
2018-06-14T22:10:46.425Z,4.43
2018-06-14T22:13:14.947Z,6.23
2018-06-14T22:15:43.879Z,5.67
2018-06-14T22:18:12.562Z,6.23
2018-06-14T22:20:41.189Z,5.50
2018-06-14T22:23:09.810Z,4.10
2018-06-14T22:25:38.631Z,7.53
2018-06-14T22:28:07.619Z,7.20
2018-06-14T22:30:36.649Z,5.07
2018-06-14T22:33:10.733Z,5.90
2018-06-14T22:35:39.530Z,7.50
2018-06-14T22:38:08.338Z,6.43
2018-06-14T22:40:37.312Z,6.13
2018-06-14T22:43:05.917Z,5.00
2018-06-14T22:45:34.706Z,5.17
2018-06-14T22:48:03.574Z,7.87
2018-06-14T22:50:37.558Z,5.23
2018-06-14T22:53:08.447Z,6.93
2018-06-14T22:55:37.105Z,5.27
2018-06-14T22:58:06.004Z,10.00
2018-06-14T23:00:39.284Z,5.60
2018-06-14T23:03:08.392Z,6.33
2018-06-14T23:05:37.311Z,6.30
2018-06-14T23:08:06.162Z,6.40
2018-06-14T23:10:43.383Z,7.47
2018-06-14T23:13:13.572Z,11.37
2018-06-14T23:15:42.486Z,12.30
2018-06-14T23:18:11.353Z,8.13
2018-06-14T23:20:39.924Z,5.03
2018-06-14T23:23:08.933Z,7.20
2018-06-14T23:25:37.961Z,5.47
2018-06-14T23:28:06.734Z,4.87
2018-06-14T23:30:35.575Z,3.23
2018-06-14T23:33:04.149Z,5.93
2018-06-14T23:35:32.846Z,5.53
2018-06-14T23:38:01.417Z,6.70
2018-06-14T23:40:30.035Z,6.83
2018-06-14T23:42:58.699Z,3.83
2018-06-14T23:45:27.301Z,3.53
2018-06-14T23:47:55.759Z,3.80
2018-06-14T23:50:24.271Z,3.93
2018-06-14T23:52:52.764Z,2.40
2018-06-14T23:55:21.344Z,3.87
2018-06-14T23:57:50.081Z,3.70
